Time;durP1;ratioP1;P1;durP2;ratioP2;P2;SDS_P1;SDS_P2;PMS_P1;PMS_P2;Temp;Humidity;BMP_temperature;BMP_pressure;BME280_temperature;BME280_humidity;BME280_pressure;Samples;Min_cycle;Max_cycle;Signal;HPM_P1;HPM_P2
2022/12/07 00:01:17;;;;;;;;;;;19.30;43.20;;;;;;5108773;28;20023;-66
2022/12/07 00:03:46;;;;;;;;;;;19.30;43.20;;;;;;5092080;28;19951;-66
2022/12/07 00:06:13;;;;;;;;;;;19.30;43.20;;;;;;5110534;28;19919;-66
2022/12/07 00:08:40;;;;;;;;;;;19.30;43.20;;;;;;5091449;28;20384;-65
2022/12/07 00:11:07;;;;;;;;;;;19.30;43.20;;;;;;5092769;28;20289;-66
2022/12/07 01:56:05;;;;;;;;;;;19.20;42.90;;;;;;5093635;28;19953;-65
2022/12/07 01:58:32;;;;;;;;;;;19.20;43.00;;;;;;5092567;28;19920;-64
2022/12/07 02:01:00;;;;;;;;;;;19.20;43.00;;;;;;5113686;28;19920;-65
2022/12/07 02:03:28;;;;;;;;;;;19.20;43.00;;;;;;5096627;28;19959;-67
2022/12/07 02:05:55;;;;;;;;;;;19.20;43.00;;;;;;5112229;28;19927;-64
2022/12/07 02:08:21;;;;;;;;;;;19.20;42.90;;;;;;5096802;28;19926;-65
2022/12/07 02:10:48;;;;;;;;;;;19.20;43.00;;;;;;5094440;28;19927;-64
2022/12/07 02:13:17;;;;;;;;;;;19.20;42.90;;;;;;5093812;28;20273;-65
2022/12/07 02:15:59;;;;;;;;;;;19.20;42.90;;;;;;5095729;28;20369;-65
2022/12/07 02:18:26;;;;;;;;;;;19.20;42.90;;;;;;5095195;28;19919;-65
2022/12/07 02:20:55;;;;;;;;;;;19.20;42.90;;;;;;5099173;28;19920;-65
2022/12/07 02:23:55;;;;;;;;;;;19.20;42.90;;;;;;5099611;28;19992;-65
2022/12/07 02:26:40;;;;;;;;;;;19.20;42.90;;;;;;5037107;28;19928;-65
2022/12/07 02:29:16;;;;;;;;;;;19.20;42.90;;;;;;5038515;28;19960;-65
2022/12/07 02:31:44;;;;;;;;;;;19.20;42.90;;;;;;5058877;28;19920;-64
2022/12/07 02:34:13;;;;;;;;;;;19.20;42.90;;;;;;5078853;28;19924;-65
2022/12/07 02:36:40;;;;;;;;;;;19.20;42.90;;;;;;5100617;28;19920;-65
2022/12/07 02:39:08;;;;;;;;;;;19.20;42.90;;;;;;5115595;28;19961;-64
2022/12/07 02:41:35;;;;;;;;;;;19.20;42.90;;;;;;5099562;28;19919;-65
2022/12/07 02:44:03;;;;;;;;;;;19.20;42.90;;;;;;5097210;28;19924;-66
2022/12/07 02:46:31;;;;;;;;;;;19.20;42.90;;;;;;5097424;28;19919;-64
2022/12/07 02:48:59;;;;;;;;;;;19.10;42.80;;;;;;5100185;28;19976;-65
2022/12/07 02:51:26;;;;;;;;;;;19.20;42.90;;;;;;5097838;28;20010;-65
2022/12/07 02:53:52;;;;;;;;;;;19.20;43.20;;;;;;5098337;28;19920;-66
2022/12/07 02:56:21;;;;;;;;;;;19.20;42.90;;;;;;5097064;28;19919;-65
2022/12/07 02:58:51;;;;;;;;;;;19.20;42.90;;;;;;5099113;28;19919;-65
2022/12/07 03:01:20;;;;;;;;;;;19.10;42.80;;;;;;5097638;28;19923;-66
2022/12/07 03:03:50;;;;;;;;;;;19.20;42.90;;;;;;5097573;28;19920;-66
2022/12/07 03:06:17;;;;;;;;;;;19.20;42.90;;;;;;5096604;28;19986;-64
2022/12/07 03:08:46;;;;;;;;;;;19.10;42.80;;;;;;5095967;28;19920;-64
2022/12/07 03:11:14;;;;;;;;;;;19.20;42.90;;;;;;5114458;28;19920;-65
2022/12/07 03:13:42;;;;;;;;;;;19.10;42.80;;;;;;5096774;28;20262;-64
2022/12/07 03:16:09;;;;;;;;;;;19.20;42.90;;;;;;5098134;28;19920;-64
2022/12/07 03:18:37;;;;;;;;;;;19.10;42.80;;;;;;5096706;28;19923;-64
2022/12/07 03:21:07;;;;;;;;;;;19.10;42.80;;;;;;5098909;28;19969;-65
2022/12/07 03:23:34;;;;;;;;;;;19.10;42.80;;;;;;5117250;28;19927;-65
2022/12/07 03:26:01;;;;;;;;;;;19.10;42.70;;;;;;5097172;28;19927;-65
2022/12/07 03:28:29;;;;;;;;;;;19.10;42.80;;;;;;5094822;28;19919;-65
2022/12/07 03:30:57;;;;;;;;;;;19.10;42.80;;;;;;5096559;28;19996;-64
2022/12/07 03:33:24;;;;;;;;;;;19.10;42.70;;;;;;5096380;28;19973;-64
2022/12/07 03:35:53;;;;;;;;;;;19.10;42.70;;;;;;5095319;28;19924;-65
2022/12/07 03:38:22;;;;;;;;;;;19.10;42.70;;;;;;5095647;28;19920;-65
2022/12/07 03:40:50;;;;;;;;;;;19.10;42.70;;;;;;5098305;28;19953;-66
2022/12/07 03:43:17;;;;;;;;;;;19.10;42.70;;;;;;5095002;28;19919;-64
2022/12/07 03:45:46;;;;;;;;;;;19.10;42.70;;;;;;5095247;28;19920;-65
2022/12/07 03:48:15;;;;;;;;;;;19.10;42.70;;;;;;5097620;28;19920;-64
2022/12/07 03:50:43;;;;;;;;;;;19.10;42.70;;;;;;5094665;28;19925;-65
2022/12/07 03:53:10;;;;;;;;;;;19.10;42.70;;;;;;5114445;28;19920;-65
2022/12/07 03:55:39;;;;;;;;;;;19.10;42.70;;;;;;5098755;28;19927;-65
2022/12/07 03:58:06;;;;;;;;;;;19.10;42.70;;;;;;5098672;28;19941;-64
2022/12/07 04:00:33;;;;;;;;;;;19.10;42.60;;;;;;5095018;28;19924;-65
2022/12/07 04:03:00;;;;;;;;;;;19.10;42.70;;;;;;5115007;28;19934;-65
2022/12/07 04:05:26;;;;;;;;;;;19.10;42.70;;;;;;5098444;28;19920;-65
2022/12/07 04:07:53;;;;;;;;;;;19.10;42.70;;;;;;5095738;28;19919;-65
2022/12/07 04:10:20;;;;;;;;;;;19.10;42.70;;;;;;5098108;28;19920;-64
2022/12/07 04:12:48;;;;;;;;;;;19.10;42.70;;;;;;5114763;28;19920;-64
2022/12/07 04:15:15;;;;;;;;;;;19.10;42.70;;;;;;5116343;28;19919;-64
2022/12/07 04:17:42;;;;;;;;;;;19.10;42.70;;;;;;5094900;28;19931;-65
2022/12/07 04:20:09;;;;;;;;;;;19.10;42.60;;;;;;5095339;28;19919;-64
2022/12/07 04:22:36;;;;;;;;;;;19.10;42.60;;;;;;5095114;28;19938;-64
2022/12/07 04:25:03;;;;;;;;;;;19.20;42.70;;;;;;5097092;28;19924;-65
2022/12/07 04:27:29;;;;;;;;;;;19.10;42.60;;;;;;5093646;28;19934;-65
2022/12/07 04:29:57;;;;;;;;;;;19.10;42.60;;;;;;5096057;28;19920;-65
2022/12/07 04:32:24;;;;;;;;;;;19.10;42.60;;;;;;5097648;28;19920;-65
2022/12/07 04:34:51;;;;;;;;;;;19.10;42.60;;;;;;5094813;28;19927;-65
2022/12/07 04:37:18;;;;;;;;;;;19.10;42.60;;;;;;5098414;28;19943;-65
2022/12/07 04:39:45;;;;;;;;;;;19.10;42.60;;;;;;5097271;28;19920;-65
2022/12/07 04:42:12;;;;;;;;;;;19.10;42.60;;;;;;5113079;28;19942;-64
2022/12/07 04:44:39;;;;;;;;;;;19.10;42.60;;;;;;5113759;28;19920;-66
2022/12/07 04:47:09;;;;;;;;;;;19.10;42.60;;;;;;5095254;28;20133;-65
2022/12/07 04:49:36;;;;;;;;;;;19.10;42.60;;;;;;5114146;28;20450;-65
2022/12/07 04:52:03;;;;;;;;;;;19.10;42.50;;;;;;5082524;28;20032;-65
2022/12/07 04:54:30;;;;;;;;;;;19.10;42.60;;;;;;5094333;28;19926;-65
2022/12/07 04:56:56;;;;;;;;;;;19.10;42.60;;;;;;5094114;28;19920;-64
2022/12/07 04:59:23;;;;;;;;;;;19.10;42.60;;;;;;5097665;28;19920;-66
2022/12/07 05:01:50;;;;;;;;;;;19.10;42.50;;;;;;5112942;28;20369;-67
2022/12/07 05:04:18;;;;;;;;;;;19.10;42.50;;;;;;5094064;28;19965;-65
2022/12/07 05:06:45;;;;;;;;;;;19.10;42.50;;;;;;5113827;28;19942;-65
2022/12/07 05:09:12;;;;;;;;;;;19.10;42.50;;;;;;5095219;28;19930;-64
2022/12/07 05:11:39;;;;;;;;;;;19.10;42.50;;;;;;5110901;28;19919;-65
2022/12/07 05:14:06;;;;;;;;;;;19.10;42.50;;;;;;5094501;28;19974;-65
2022/12/07 05:16:33;;;;;;;;;;;19.10;42.50;;;;;;5094940;28;19920;-66
2022/12/07 05:18:59;;;;;;;;;;;19.10;42.50;;;;;;5111858;28;19984;-65
2022/12/07 05:21:28;;;;;;;;;;;19.10;42.50;;;;;;5095525;28;19924;-65
2022/12/07 05:23:54;;;;;;;;;;;19.10;42.50;;;;;;5111119;28;19924;-66
2022/12/07 05:26:21;;;;;;;;;;;19.10;42.50;;;;;;5093723;28;19920;-65
2022/12/07 05:28:50;;;;;;;;;;;19.10;42.50;;;;;;5095091;28;19942;-64
2022/12/07 05:31:17;;;;;;;;;;;19.10;42.50;;;;;;5093961;28;19919;-65
2022/12/07 05:33:44;;;;;;;;;;;19.10;42.50;;;;;;5094659;28;19920;-65
2022/12/07 05:36:10;;;;;;;;;;;19.10;42.50;;;;;;5093585;28;19984;-64
2022/12/07 05:38:39;;;;;;;;;;;19.10;42.50;;;;;;5113514;28;19919;-65
2022/12/07 05:41:06;;;;;;;;;;;19.10;42.50;;;;;;5093481;28;19924;-64
2022/12/07 05:43:33;;;;;;;;;;;19.10;42.50;;;;;;5095789;28;19977;-65
2022/12/07 05:45:59;;;;;;;;;;;19.10;42.50;;;;;;5095138;28;19927;-64
2022/12/07 05:48:26;;;;;;;;;;;19.10;42.50;;;;;;5093230;28;19973;-65
2022/12/07 05:50:53;;;;;;;;;;;19.10;42.50;;;;;;5113464;28;19927;-64
2022/12/07 05:53:20;;;;;;;;;;;19.10;42.50;;;;;;5092348;28;19969;-64
2022/12/07 05:55:48;;;;;;;;;;;19.10;42.50;;;;;;5094676;28;19920;-64
2022/12/07 06:00:59;;;;;;;;;;;19.10;42.40;;;;;;5112833;28;20028;-64
2022/12/07 06:03:26;;;;;;;;;;;19.10;42.40;;;;;;5093770;28;19927;-65
2022/12/07 06:05:53;;;;;;;;;;;19.10;42.40;;;;;;5094206;28;19958;-64
2022/12/07 06:08:19;;;;;;;;;;;19.10;42.40;;;;;;5095454;28;20369;-64
2022/12/07 06:12:33;;;;;;;;;;;19.10;42.40;;;;;;5091048;28;19927;-65
2022/12/07 06:13:36;;;;;;;;;;;19.00;42.30;;;;;;5092410;28;20018;-65
2022/12/07 06:16:03;;;;;;;;;;;19.10;42.40;;;;;;5094674;28;20033;-64
2022/12/07 06:18:29;;;;;;;;;;;19.10;42.40;;;;;;5093621;28;20022;-65
2022/12/07 06:20:56;;;;;;;;;;;19.10;42.40;;;;;;5111052;28;19949;-66
2022/12/07 06:23:23;;;;;;;;;;;19.10;42.40;;;;;;5092324;28;20377;-65
2022/12/07 06:25:51;;;;;;;;;;;19.10;42.30;;;;;;5112207;28;20292;-65
2022/12/07 06:28:18;;;;;;;;;;;19.10;42.30;;;;;;5093078;28;19976;-64
2022/12/07 06:30:44;;;;;;;;;;;19.10;42.30;;;;;;5110436;28;19927;-65
2022/12/07 06:33:11;;;;;;;;;;;19.10;42.40;;;;;;5093235;28;19920;-65
2022/12/07 06:35:38;;;;;;;;;;;19.10;42.30;;;;;;5096408;28;19926;-65
2022/12/07 06:38:05;;;;;;;;;;;19.10;42.30;;;;;;5094026;28;19920;-65
2022/12/07 06:40:31;;;;;;;;;;;19.10;42.30;;;;;;5091438;28;19927;-64
2022/12/07 06:43:00;;;;;;;;;;;19.10;42.30;;;;;;5132038;28;19965;-65
2022/12/07 06:45:26;;;;;;;;;;;19.10;42.30;;;;;;5106556;28;19920;-64
2022/12/07 06:47:53;;;;;;;;;;;19.10;42.30;;;;;;5094352;28;19975;-65
2022/12/07 06:50:20;;;;;;;;;;;19.10;42.30;;;;;;5093853;28;19926;-65
2022/12/07 06:52:47;;;;;;;;;;;19.10;42.30;;;;;;5094111;28;19923;-64
2022/12/07 06:55:13;;;;;;;;;;;19.10;42.30;;;;;;5095492;28;19924;-65
2022/12/07 06:57:40;;;;;;;;;;;19.10;42.30;;;;;;5094494;28;19920;-66
2022/12/07 07:00:09;;;;;;;;;;;19.10;42.30;;;;;;5094303;28;19924;-65
2022/12/07 07:02:36;;;;;;;;;;;19.10;42.30;;;;;;5096398;28;19924;-65
2022/12/07 07:05:03;;;;;;;;;;;19.10;42.30;;;;;;5095280;28;19926;-65
2022/12/07 07:07:29;;;;;;;;;;;19.00;42.20;;;;;;5116163;28;19924;-64
2022/12/07 07:09:56;;;;;;;;;;;19.00;42.10;;;;;;5099359;28;19931;-65
2022/12/07 07:12:23;;;;;;;;;;;19.00;42.20;;;;;;5099452;28;19924;-65
2022/12/07 07:14:50;;;;;;;;;;;19.00;42.20;;;;;;5097428;28;19926;-65
2022/12/07 07:17:18;;;;;;;;;;;19.10;42.20;;;;;;5117756;28;19920;-65
2022/12/07 07:19:45;;;;;;;;;;;19.10;42.20;;;;;;5100158;28;19920;-65
2022/12/07 07:22:11;;;;;;;;;;;19.00;42.10;;;;;;5097053;28;19923;-64
2022/12/07 07:24:38;;;;;;;;;;;19.00;42.10;;;;;;5099152;28;19927;-65
2022/12/07 07:27:05;;;;;;;;;;;19.00;42.10;;;;;;5097176;28;19920;-65
2022/12/07 07:29:32;;;;;;;;;;;19.00;42.10;;;;;;5114816;28;19941;-64
2022/12/07 07:31:58;;;;;;;;;;;19.00;42.10;;;;;;5097143;28;19986;-65
2022/12/07 07:34:27;;;;;;;;;;;19.00;42.10;;;;;;5117104;28;20303;-65
2022/12/07 07:36:55;;;;;;;;;;;19.00;42.10;;;;;;5096786;28;19946;-65
2022/12/07 07:39:22;;;;;;;;;;;19.00;42.10;;;;;;5099283;28;20284;-66
2022/12/07 07:41:49;;;;;;;;;;;19.10;42.20;;;;;;5114225;28;19920;-66
2022/12/07 07:44:16;;;;;;;;;;;19.00;42.10;;;;;;5096814;28;19942;-64
2022/12/07 07:46:42;;;;;;;;;;;19.00;42.10;;;;;;5099384;28;19957;-66
2022/12/07 07:49:10;;;;;;;;;;;19.00;42.00;;;;;;5116777;28;19989;-64
2022/12/07 07:51:38;;;;;;;;;;;19.00;42.00;;;;;;5096655;28;19973;-65
2022/12/07 07:54:05;;;;;;;;;;;19.00;42.00;;;;;;5096149;28;20258;-70
2022/12/07 07:56:31;;;;;;;;;;;19.00;42.00;;;;;;5116859;28;19958;-65
2022/12/07 07:58:58;;;;;;;;;;;19.00;42.00;;;;;;5096633;28;19927;-65
2022/12/07 08:01:25;;;;;;;;;;;19.00;42.00;;;;;;5115726;28;19919;-65
2022/12/07 08:03:52;;;;;;;;;;;19.00;42.10;;;;;;5095788;28;19969;-65
2022/12/07 08:06:18;;;;;;;;;;;19.00;42.00;;;;;;5099197;28;19972;-64
2022/12/07 08:08:47;;;;;;;;;;;19.00;42.00;;;;;;5114286;28;19924;-67
2022/12/07 08:11:13;;;;;;;;;;;19.00;42.00;;;;;;5106269;28;19927;-65
2022/12/07 08:13:40;;;;;;;;;;;19.00;42.00;;;;;;5076857;28;19924;-64
2022/12/07 08:16:08;;;;;;;;;;;19.00;42.00;;;;;;5097065;28;19920;-65
2022/12/07 08:18:35;;;;;;;;;;;19.00;42.00;;;;;;5114151;28;19923;-64
2022/12/07 08:21:02;;;;;;;;;;;19.00;42.00;;;;;;5097606;28;19928;-64
2022/12/07 08:23:29;;;;;;;;;;;19.00;41.90;;;;;;5076517;28;19920;-64
2022/12/07 08:25:57;;;;;;;;;;;19.00;41.60;;;;;;5094356;28;19973;-64
2022/12/07 08:28:24;;;;;;;;;;;19.00;41.20;;;;;;5079760;28;19973;-64
2022/12/07 08:30:51;;;;;;;;;;;19.00;41.00;;;;;;5097540;28;19943;-64
2022/12/07 08:33:19;;;;;;;;;;;19.00;40.70;;;;;;5094404;28;19920;-63
2022/12/07 08:35:46;;;;;;;;;;;19.00;40.60;;;;;;5098308;28;19920;-64
2022/12/07 08:38:13;;;;;;;;;;;19.00;40.40;;;;;;5097560;28;19919;-63
2022/12/07 08:40:40;;;;;;;;;;;18.90;40.20;;;;;;5094774;28;19920;-65
2022/12/07 08:43:08;;;;;;;;;;;18.90;40.10;;;;;;5095789;28;19964;-64
2022/12/07 08:45:35;;;;;;;;;;;18.90;40.00;;;;;;5097624;28;20368;-63
2022/12/07 08:48:03;;;;;;;;;;;18.90;39.80;;;;;;5094841;28;20464;-63
2022/12/07 08:50:29;;;;;;;;;;;18.90;39.80;;;;;;5094658;28;19935;-63
2022/12/07 08:52:57;;;;;;;;;;;18.90;39.60;;;;;;5115432;28;19920;-66
2022/12/07 08:55:24;;;;;;;;;;;18.90;39.60;;;;;;5098256;28;19924;-64
2022/12/07 08:57:51;;;;;;;;;;;18.80;39.50;;;;;;5095612;28;19924;-64
2022/12/07 09:00:19;;;;;;;;;;;18.80;39.40;;;;;;5094713;28;19919;-65
2022/12/07 09:02:46;;;;;;;;;;;18.80;39.40;;;;;;5093792;28;19931;-64
2022/12/07 09:05:14;;;;;;;;;;;18.80;39.30;;;;;;5095181;28;19920;-64
2022/12/07 09:07:41;;;;;;;;;;;18.80;39.30;;;;;;5112342;28;20208;-64
2022/12/07 09:10:08;;;;;;;;;;;18.80;39.30;;;;;;5094539;28;19920;-64
2022/12/07 09:12:35;;;;;;;;;;;18.80;39.30;;;;;;5095579;28;19977;-63
2022/12/07 09:15:02;;;;;;;;;;;18.80;39.20;;;;;;5094683;28;19977;-64
2022/12/07 09:17:32;;;;;;;;;;;18.80;39.10;;;;;;5096705;28;19969;-64
2022/12/07 09:20:00;;;;;;;;;;;18.80;39.10;;;;;;5092792;28;19919;-66
2022/12/07 09:22:29;;;;;;;;;;;18.80;39.00;;;;;;5112529;28;19920;-65
2022/12/07 09:24:55;;;;;;;;;;;18.80;39.00;;;;;;5093617;28;19920;-64
2022/12/07 09:27:22;;;;;;;;;;;18.80;39.00;;;;;;5093377;28;19923;-64
2022/12/07 09:29:49;;;;;;;;;;;18.80;39.00;;;;;;5094952;28;19923;-67
2022/12/07 09:32:16;;;;;;;;;;;18.80;38.90;;;;;;5084835;28;19927;-65
2022/12/07 09:34:44;;;;;;;;;;;18.70;38.80;;;;;;5122056;27;19923;-69
2022/12/07 09:37:11;;;;;;;;;;;18.70;38.80;;;;;;5094811;28;20366;-66
2022/12/07 09:39:38;;;;;;;;;;;18.70;38.90;;;;;;5094240;28;19932;-68
2022/12/07 09:42:05;;;;;;;;;;;18.80;39.20;;;;;;5114802;28;19923;-66
2022/12/07 09:44:32;;;;;;;;;;;18.80;39.40;;;;;;5112058;28;19924;-64
2022/12/07 09:46:59;;;;;;;;;;;18.80;39.60;;;;;;5094156;28;19958;-68
2022/12/07 09:49:27;;;;;;;;;;;18.80;39.70;;;;;;5094461;28;19920;-66
2022/12/07 09:52:01;;;;;;;;;;;18.80;39.70;;;;;;5101895;28;19927;-66
2022/12/07 09:54:28;;;;;;;;;;;18.80;39.80;;;;;;5119875;27;19920;-66
2022/12/07 09:56:55;;;;;;;;;;;18.80;39.90;;;;;;5095063;28;19924;-66
2022/12/07 09:59:22;;;;;;;;;;;18.80;40.10;;;;;;5097122;28;20384;-65
2022/12/07 10:01:49;;;;;;;;;;;18.80;40.10;;;;;;5096478;28;19926;-67
2022/12/07 10:04:20;;;;;;;;;;;18.80;40.20;;;;;;5094479;28;19920;-66
2022/12/07 10:06:47;;;;;;;;;;;18.80;40.20;;;;;;5088848;28;19980;-66
2022/12/07 10:09:16;;;;;;;;;;;18.80;40.30;;;;;;5095143;28;19970;-65
2022/12/07 10:11:59;;;;;;;;;;;18.80;40.30;;;;;;5089770;28;19931;-66
2022/12/07 10:14:26;;;;;;;;;;;18.80;40.30;;;;;;5090867;28;20272;-66
2022/12/07 10:16:52;;;;;;;;;;;18.80;40.30;;;;;;5114200;28;19943;-65
2022/12/07 10:19:20;;;;;;;;;;;18.80;40.40;;;;;;5093635;28;19934;-66
2022/12/07 10:22:00;;;;;;;;;;;18.90;40.50;;;;;;5096234;28;19920;-66
2022/12/07 10:24:29;;;;;;;;;;;18.90;40.50;;;;;;5091814;28;19919;-64
2022/12/07 10:26:56;;;;;;;;;;;18.90;40.50;;;;;;5093882;28;19927;-66
2022/12/07 10:29:23;;;;;;;;;;;18.90;40.50;;;;;;5119288;28;19926;-66
2022/12/07 10:31:51;;;;;;;;;;;18.90;40.50;;;;;;5113097;28;19920;-67
2022/12/07 10:34:21;;;;;;;;;;;18.90;40.60;;;;;;5112473;28;19928;-65
2022/12/07 10:36:48;;;;;;;;;;;18.90;40.60;;;;;;5095070;28;19919;-63
2022/12/07 10:39:15;;;;;;;;;;;18.90;40.70;;;;;;5099216;28;19919;-63
2022/12/07 10:41:55;;;;;;;;;;;18.90;40.70;;;;;;5114406;28;19931;-68
2022/12/07 10:44:22;;;;;;;;;;;18.90;40.70;;;;;;5097424;28;19977;-73
2022/12/07 10:46:58;;;;;;;;;;;18.90;40.70;;;;;;5117356;28;20384;-66
2022/12/07 10:49:38;;;;;;;;;;;18.90;40.70;;;;;;5099731;28;19931;-65
2022/12/07 10:52:07;;;;;;;;;;;18.90;40.70;;;;;;5080151;28;20026;-68
2022/12/07 10:54:35;;;;;;;;;;;19.00;40.80;;;;;;5092460;28;20032;-67
2022/12/07 11:00:02;;;;;;;;;;;19.00;40.90;;;;;;5083822;27;2026694;-65
2022/12/07 11:02:42;;;;;;;;;;;19.00;40.90;;;;;;5150287;27;19972;-66
2022/12/07 11:05:12;;;;;;;;;;;19.00;40.90;;;;;;5153396;27;20380;-67
2022/12/07 11:07:44;;;;;;;;;;;19.00;40.90;;;;;;5132916;27;19919;-66
2022/12/07 11:10:13;;;;;;;;;;;19.00;41.00;;;;;;5129291;27;19977;-66
2022/12/07 11:12:43;;;;;;;;;;;19.00;41.00;;;;;;5135308;27;19972;-67
2022/12/07 11:15:14;;;;;;;;;;;19.00;41.00;;;;;;5115235;28;19931;-65
2022/12/07 11:17:43;;;;;;;;;;;19.00;41.00;;;;;;5118923;27;19939;-65
2022/12/07 11:20:14;;;;;;;;;;;19.00;41.00;;;;;;5134368;27;19923;-66
2022/12/07 11:22:42;;;;;;;;;;;19.10;41.20;;;;;;5122315;28;19920;-66
2022/12/07 11:25:16;;;;;;;;;;;19.10;41.20;;;;;;5111931;28;19946;-67
2022/12/07 11:27:48;;;;;;;;;;;19.10;41.20;;;;;;5112072;28;19926;-66
2022/12/07 11:30:18;;;;;;;;;;;19.10;41.20;;;;;;5129234;27;19920;-64
2022/12/07 11:33:02;;;;;;;;;;;19.00;41.20;;;;;;5152089;27;19927;-64
2022/12/07 11:35:32;;;;;;;;;;;19.10;41.20;;;;;;5145182;27;19923;-66
2022/12/07 11:38:00;;;;;;;;;;;19.10;41.20;;;;;;5113450;28;19977;-64
2022/12/07 11:40:28;;;;;;;;;;;19.10;41.20;;;;;;5114758;28;19927;-66
2022/12/07 11:42:56;;;;;;;;;;;19.10;41.20;;;;;;5131600;28;19919;-67
2022/12/07 11:45:25;;;;;;;;;;;19.10;41.30;;;;;;5111146;28;19923;-66
2022/12/07 11:47:53;;;;;;;;;;;19.10;41.30;;;;;;5111490;27;19927;-66
2022/12/07 11:50:24;;;;;;;;;;;19.10;41.30;;;;;;5131622;28;19942;-64
2022/12/07 11:52:52;;;;;;;;;;;19.10;41.30;;;;;;5110752;28;19988;-67
2022/12/07 11:55:21;;;;;;;;;;;19.10;41.30;;;;;;5129633;27;19927;-65
2022/12/07 11:57:49;;;;;;;;;;;19.10;41.30;;;;;;5113014;28;19919;-64
2022/12/07 12:00:17;;;;;;;;;;;19.10;41.40;;;;;;5109476;27;19927;-64
2022/12/07 12:02:47;;;;;;;;;;;19.10;41.20;;;;;;5112140;28;19919;-64
2022/12/07 12:05:14;;;;;;;;;;;19.10;41.20;;;;;;5134698;27;19954;-63
2022/12/07 12:07:41;;;;;;;;;;;19.10;41.00;;;;;;5151843;27;19926;-63
2022/12/07 12:10:14;;;;;;;;;;;19.10;40.60;;;;;;5109226;28;20266;-65
2022/12/07 12:13:01;;;;;;;;;;;19.10;38.90;;;;;;5101996;27;19968;-63
2022/12/07 12:15:31;;;;;;;;;;;19.10;38.70;;;;;;5117464;28;19928;-64
2022/12/07 12:18:08;;;;;;;;;;;19.00;38.70;;;;;;5096830;28;19920;-64
2022/12/07 12:20:36;;;;;;;;;;;19.00;38.70;;;;;;5099317;28;19926;-63
2022/12/07 12:23:06;;;;;;;;;;;18.90;38.80;;;;;;5117368;28;19920;-64
2022/12/07 12:25:36;;;;;;;;;;;18.90;38.80;;;;;;5112253;27;19927;-64
2022/12/07 12:28:03;;;;;;;;;;;18.90;38.90;;;;;;5131104;27;19931;-64
2022/12/07 12:30:31;;;;;;;;;;;18.90;38.90;;;;;;5136175;27;19930;-64
2022/12/07 12:33:02;;;;;;;;;;;18.90;38.90;;;;;;5119157;27;19926;-63
2022/12/07 12:35:31;;;;;;;;;;;18.80;38.80;;;;;;5102664;28;19927;-64
2022/12/07 12:38:13;;;;;;;;;;;18.90;38.90;;;;;;5113958;27;19919;-63
2022/12/07 12:40:44;;;;;;;;;;;18.80;38.70;;;;;;5103676;28;20487;-65
2022/12/07 12:43:30;;;;;;;;;;;18.80;38.90;;;;;;5116419;28;20323;-66
2022/12/07 12:46:12;;;;;;;;;;;18.80;39.10;;;;;;5096793;28;20350;-65
2022/12/07 12:48:39;;;;;;;;;;;18.80;39.30;;;;;;5095309;28;19920;-68
2022/12/07 12:51:24;;;;;;;;;;;18.80;39.50;;;;;;5114758;28;19965;-65
2022/12/07 12:53:52;;;;;;;;;;;18.90;39.70;;;;;;5098479;28;19923;-66
2022/12/07 12:56:26;;;;;;;;;;;18.90;39.90;;;;;;5108883;27;19920;-66
2022/12/07 12:59:17;;;;;;;;;;;18.90;40.00;;;;;;5118573;27;19919;-65
2022/12/07 13:01:44;;;;;;;;;;;18.90;40.10;;;;;;5117913;27;19919;-66
2022/12/07 13:04:23;;;;;;;;;;;18.90;40.20;;;;;;5107983;28;19928;-69
2022/12/07 13:06:50;;;;;;;;;;;18.90;40.20;;;;;;5116423;28;19920;-68
2022/12/07 13:09:21;;;;;;;;;;;18.90;40.30;;;;;;5118357;27;19924;-67
2022/12/07 13:11:48;;;;;;;;;;;18.90;40.40;;;;;;5116321;28;19965;-68
2022/12/07 13:14:33;;;;;;;;;;;19.00;40.50;;;;;;5114105;28;19920;-67
2022/12/07 13:17:00;;;;;;;;;;;19.00;40.50;;;;;;5096675;28;19935;-66
2022/12/07 13:20:01;;;;;;;;;;;19.00;40.60;;;;;;5096543;28;19948;-66
2022/12/07 13:22:41;;;;;;;;;;;19.00;40.60;;;;;;5103730;27;19934;-71
2022/12/07 13:25:10;;;;;;;;;;;19.00;40.60;;;;;;5116626;27;19920;-65
2022/12/07 13:27:37;;;;;;;;;;;19.00;40.60;;;;;;5105179;28;19924;-65
2022/12/07 13:30:07;;;;;;;;;;;19.00;40.60;;;;;;5099754;27;19926;-66
2022/12/07 13:32:34;;;;;;;;;;;19.00;40.70;;;;;;5115827;28;19926;-65
2022/12/07 13:35:01;;;;;;;;;;;19.00;40.70;;;;;;5097752;27;19930;-67
2022/12/07 13:37:28;;;;;;;;;;;19.10;40.80;;;;;;5118191;27;19964;-66
2022/12/07 13:39:55;;;;;;;;;;;19.10;40.90;;;;;;5101861;28;20011;-65
2022/12/07 13:42:26;;;;;;;;;;;19.10;40.90;;;;;;5097601;28;19926;-66
2022/12/07 13:44:53;;;;;;;;;;;19.10;40.90;;;;;;5095187;28;19926;-65
2022/12/07 13:47:20;;;;;;;;;;;19.10;41.00;;;;;;5100191;27;19919;-66
2022/12/07 13:49:48;;;;;;;;;;;19.10;41.00;;;;;;5115873;27;19926;-66
2022/12/07 13:52:15;;;;;;;;;;;19.10;41.00;;;;;;5128804;27;20353;-65
2022/12/07 13:54:44;;;;;;;;;;;19.10;41.00;;;;;;5103681;28;19973;-65
2022/12/07 13:57:11;;;;;;;;;;;19.10;41.00;;;;;;5118859;27;19928;-65
2022/12/07 13:59:39;;;;;;;;;;;19.10;41.10;;;;;;5106590;28;19968;-64
2022/12/07 14:02:17;;;;;;;;;;;19.10;41.10;;;;;;5115349;28;20285;-65
2022/12/07 14:04:44;;;;;;;;;;;19.10;41.10;;;;;;5095323;28;19924;-66
2022/12/07 14:07:24;;;;;;;;;;;19.10;41.20;;;;;;5116378;27;19919;-65
2022/12/07 14:09:54;;;;;;;;;;;19.10;41.10;;;;;;5118024;27;19968;-67
2022/12/07 14:12:21;;;;;;;;;;;19.10;41.20;;;;;;5098184;28;19920;-66
2022/12/07 14:14:49;;;;;;;;;;;19.10;41.20;;;;;;5095337;27;19920;-67
2022/12/07 14:17:16;;;;;;;;;;;19.10;41.20;;;;;;5116268;27;20014;-66
2022/12/07 14:19:50;;;;;;;;;;;19.10;41.20;;;;;;5113404;27;20345;-68
2022/12/07 14:22:21;;;;;;;;;;;19.10;41.20;;;;;;5116355;27;19942;-68
2022/12/07 14:24:48;;;;;;;;;;;19.20;41.40;;;;;;5110137;28;19923;-68
2022/12/07 14:27:21;;;;;;;;;;;19.20;41.30;;;;;;5096620;28;19920;-67
2022/12/07 14:29:49;;;;;;;;;;;19.20;41.30;;;;;;5102113;27;19941;-67
2022/12/07 14:32:28;;;;;;;;;;;19.20;41.30;;;;;;5109303;28;19920;-66
2022/12/07 14:34:57;;;;;;;;;;;19.20;41.40;;;;;;5115205;28;19920;-66
2022/12/07 14:37:24;;;;;;;;;;;19.10;41.20;;;;;;5094843;28;19920;-67
2022/12/07 14:39:51;;;;;;;;;;;19.20;41.40;;;;;;5096447;28;19965;-66
2022/12/07 14:42:18;;;;;;;;;;;19.20;41.40;;;;;;5094313;28;19955;-66
2022/12/07 14:44:44;;;;;;;;;;;19.20;41.40;;;;;;5101799;27;19923;-64
2022/12/07 14:47:13;;;;;;;;;;;19.20;41.40;;;;;;5125237;27;19920;-64
2022/12/07 14:49:39;;;;;;;;;;;19.20;41.40;;;;;;5110428;28;19919;-65
2022/12/07 14:52:06;;;;;;;;;;;19.20;41.50;;;;;;5096629;27;19931;-63
2022/12/07 14:54:33;;;;;;;;;;;19.20;41.50;;;;;;5107315;28;20248;-65
2022/12/07 14:57:00;;;;;;;;;;;19.20;41.50;;;;;;5096482;28;20272;-65
2022/12/07 14:59:26;;;;;;;;;;;19.20;41.50;;;;;;5114696;28;19924;-65
2022/12/07 15:01:53;;;;;;;;;;;19.20;41.50;;;;;;5117300;28;20008;-65
2022/12/07 15:04:21;;;;;;;;;;;19.20;41.50;;;;;;5112402;28;19919;-63
2022/12/07 15:06:55;;;;;;;;;;;19.20;41.50;;;;;;5094427;28;19919;-65
2022/12/07 15:09:22;;;;;;;;;;;19.20;41.60;;;;;;5110970;28;20295;-66
2022/12/07 15:11:49;;;;;;;;;;;19.20;41.60;;;;;;5094620;28;19920;-67
2022/12/07 15:14:16;;;;;;;;;;;19.20;41.60;;;;;;5094447;28;19920;-67
2022/12/07 15:16:54;;;;;;;;;;;19.30;41.60;;;;;;5096810;28;20028;-67
2022/12/07 15:19:25;;;;;;;;;;;19.30;41.60;;;;;;5099850;28;19919;-65
2022/12/07 15:21:52;;;;;;;;;;;19.30;41.70;;;;;;5113121;28;19920;-66
2022/12/07 15:24:19;;;;;;;;;;;19.30;41.70;;;;;;5113909;28;19920;-66
2022/12/07 15:26:46;;;;;;;;;;;19.30;41.70;;;;;;5131052;28;19965;-66
2022/12/07 15:29:14;;;;;;;;;;;19.30;41.70;;;;;;5121953;28;19923;-66
2022/12/07 15:31:43;;;;;;;;;;;19.30;41.70;;;;;;5096275;28;19920;-67
2022/12/07 15:34:09;;;;;;;;;;;19.30;41.70;;;;;;5093667;28;19920;-66
2022/12/07 15:36:38;;;;;;;;;;;19.30;41.80;;;;;;5106843;28;19920;-66
2022/12/07 15:39:10;;;;;;;;;;;19.30;41.70;;;;;;5100870;28;19928;-64
2022/12/07 15:41:38;;;;;;;;;;;19.30;41.70;;;;;;5094573;28;19932;-66
2022/12/07 15:46:48;;;;;;;;;;;19.30;41.80;;;;;;5103129;27;19920;-67
2022/12/07 15:49:16;;;;;;;;;;;19.30;41.70;;;;;;5099382;28;19919;-66
2022/12/07 15:51:44;;;;;;;;;;;19.30;41.80;;;;;;5097298;28;19919;-66
2022/12/07 15:54:13;;;;;;;;;;;19.30;41.80;;;;;;5119787;27;20018;-66
2022/12/07 15:56:39;;;;;;;;;;;19.30;41.80;;;;;;5105331;28;19920;-66
2022/12/07 15:59:06;;;;;;;;;;;19.30;41.80;;;;;;5117966;28;19923;-66
2022/12/07 16:01:33;;;;;;;;;;;19.30;41.80;;;;;;5101730;28;19919;-65
2022/12/07 16:04:00;;;;;;;;;;;19.30;41.80;;;;;;5100153;27;19920;-65
2022/12/07 16:06:26;;;;;;;;;;;19.30;41.80;;;;;;5099540;28;19993;-65
2022/12/07 16:08:55;;;;;;;;;;;19.30;41.80;;;;;;5097750;28;19967;-64
2022/12/07 16:11:22;;;;;;;;;;;19.30;41.80;;;;;;5104657;28;19955;-66
2022/12/07 16:13:48;;;;;;;;;;;19.30;41.80;;;;;;5122116;27;19927;-65
2022/12/07 16:16:16;;;;;;;;;;;19.30;41.80;;;;;;5104672;28;19968;-67